createdAt,value
2017-04-29T00:02:35.923Z,20.14
2017-04-29T00:03:18.917Z,20.14
2017-04-29T00:04:00.558Z,20.18
2017-04-29T00:04:42.352Z,20.16
2017-04-29T00:05:26.376Z,20.14
2017-04-29T00:06:09.383Z,20.2
2017-04-29T00:06:52.990Z,20.17
2017-04-29T00:07:35.901Z,20.16
2017-04-29T00:08:18.436Z,20.18
2017-04-29T00:09:01.059Z,20.14
2017-04-29T00:09:44.118Z,20.16
2017-04-29T00:10:28.916Z,20.16
2017-04-29T00:11:13.793Z,20.23
2017-04-29T00:11:58.058Z,20.2
2017-04-29T00:12:40.872Z,20.18
2017-04-29T00:13:23.781Z,20.16
2017-04-29T00:14:06.880Z,20.17
2017-04-29T00:14:50.953Z,20.11
2017-04-29T00:15:32.955Z,20.13
2017-04-29T00:16:17.816Z,20.17
2017-04-29T00:17:02.957Z,20.08
2017-04-29T00:17:46.625Z,20.13
2017-04-29T00:18:29.168Z,20.18
2017-04-29T00:19:12.461Z,20.24
2017-04-29T00:19:54.885Z,20.14
2017-04-29T00:20:38.908Z,20.13
2017-04-29T00:23:42.887Z,20.13
2017-04-29T00:24:25.930Z,20.13
2017-04-29T00:25:10.077Z,20.18
2017-04-29T00:25:53.933Z,20.13
2017-04-29T00:26:36.950Z,20.14
2017-04-29T00:27:21.918Z,20.11
2017-04-29T00:28:05.420Z,20.14
2017-04-29T00:28:48.553Z,20.13
2017-04-29T00:29:30.389Z,20.18
2017-04-29T00:30:14.406Z,20.13
2017-04-29T00:30:56.405Z,20.14
2017-04-29T00:31:40.444Z,20.16
2017-04-29T00:32:24.362Z,20.16
2017-04-29T00:33:07.099Z,20.1
2017-04-29T00:33:50.448Z,20.16
2017-04-29T00:34:33.553Z,20.13
2017-04-29T00:35:17.919Z,20.13
2017-04-29T00:36:01.911Z,20.11
2017-04-29T00:36:44.358Z,20.14
2017-04-29T00:37:26.910Z,20.23
2017-04-29T00:38:10.241Z,20.05
2017-04-29T00:38:52.415Z,20.1
2017-04-29T00:39:35.709Z,20.16
2017-04-29T00:40:18.936Z,20.14
2017-04-29T00:41:03.421Z,20.17
2017-04-29T00:41:48.392Z,20.13
2017-04-29T00:42:31.597Z,20.16
2017-04-29T00:44:48.758Z,20.13
2017-04-29T00:45:32.874Z,20.06
2017-04-29T00:46:15.589Z,20.16
2017-04-29T00:46:59.822Z,20.13
2017-04-29T00:47:42.011Z,20.13
2017-04-29T00:48:26.338Z,20.11
2017-04-29T00:49:07.730Z,20.14
2017-04-29T00:49:50.829Z,20.13
2017-04-29T00:50:33.523Z,20.17
2017-04-29T00:51:17.480Z,20.16
2017-04-29T00:52:00.822Z,20.06
2017-04-29T00:52:43.884Z,20.08
2017-04-29T00:53:26.319Z,20.17
2017-04-29T00:54:10.045Z,20.02
2017-04-29T00:54:52.359Z,20.1
2017-04-29T00:55:34.471Z,20.16
2017-04-29T00:56:18.349Z,20.17
2017-04-29T00:57:02.320Z,20.1
2017-04-29T00:57:46.088Z,20.14
2017-04-29T00:58:29.472Z,20.13
2017-04-29T00:59:14.326Z,20.1
2017-04-29T00:59:57.833Z,20.14
2017-04-29T01:00:40.363Z,20.11
2017-04-29T01:01:23.841Z,20.13
2017-04-29T01:02:07.930Z,20.1
2017-04-29T01:02:52.826Z,20.05
2017-04-29T01:03:36.882Z,20.1
2017-04-29T01:04:19.824Z,20.14
2017-04-29T01:05:02.335Z,20.13
2017-04-29T01:05:46.329Z,20.02
2017-04-29T01:06:27.094Z,20.13
2017-04-29T01:07:11.140Z,20.11
2017-04-29T01:07:53.216Z,20.14
2017-04-29T01:08:37.367Z,20.06
2017-04-29T01:09:19.382Z,20.1
2017-04-29T01:10:04.057Z,20.13
2017-04-29T01:10:48.348Z,20.16
2017-04-29T01:11:32.378Z,20.06
2017-04-29T01:12:15.899Z,20.14
2017-04-29T01:13:00.863Z,20.14
2017-04-29T01:13:46.365Z,20.1
2017-04-29T01:14:28.081Z,20.11
2017-04-29T01:15:10.511Z,20.13
2017-04-29T01:15:52.906Z,20.13
2017-04-29T01:16:35.845Z,20.13
2017-04-29T01:17:18.836Z,20.16
2017-04-29T01:18:03.870Z,20.14
2017-04-29T01:18:48.045Z,20.1
2017-04-29T01:19:30.546Z,20.16
2017-04-29T01:20:13.986Z,20.03
2017-04-29T01:20:56.983Z,20.1
2017-04-29T01:21:40.885Z,20.14
2017-04-29T01:22:24.835Z,20.11
2017-04-29T01:23:07.320Z,20.11
2017-04-29T01:23:50.355Z,20.1
2017-04-29T01:24:32.940Z,20.02
2017-04-29T01:25:16.882Z,20.11
2017-04-29T01:26:00.346Z,20.13
2017-04-29T01:26:42.927Z,20.02
2017-04-29T01:27:27.330Z,20.16
2017-04-29T01:28:11.011Z,20.05
2017-04-29T01:28:53.837Z,20.05
2017-04-29T01:29:37.274Z,20.16
2017-04-29T01:30:18.834Z,20.1
2017-04-29T01:31:02.932Z,20.18
2017-04-29T01:31:47.352Z,20.14
2017-04-29T01:32:30.049Z,20.14
2017-04-29T01:33:14.638Z,20.14
2017-04-29T01:33:58.398Z,20.16
2017-04-29T01:34:42.267Z,20.11
2017-04-29T01:35:26.261Z,20.06
2017-04-29T01:36:09.852Z,20.1
2017-04-29T01:36:54.891Z,20.11
2017-04-29T01:37:38.356Z,20.05
2017-04-29T01:38:22.370Z,20.1
2017-04-29T01:39:04.475Z,20.14
2017-04-29T01:39:48.842Z,20.14
2017-04-29T01:40:31.433Z,20.13
2017-04-29T01:41:15.504Z,20.13
2017-04-29T01:41:58.894Z,20.1
2017-04-29T01:42:42.942Z,20.11
2017-04-29T01:43:25.983Z,20.11
2017-04-29T01:45:23.091Z,20.05
2017-04-29T01:46:05.045Z,20.06
2017-04-29T01:46:48.027Z,20.05
2017-04-29T01:47:31.515Z,20.11
2017-04-29T01:48:16.152Z,20.13
2017-04-29T01:49:00.520Z,20.11
2017-04-29T01:49:44.024Z,20.11
2017-04-29T01:50:25.163Z,20.1
2017-04-29T01:51:09.025Z,20.05
2017-04-29T01:51:52.046Z,20.14
2017-04-29T01:52:36.303Z,20.13
2017-04-29T01:53:19.942Z,20.16
2017-04-29T01:54:00.735Z,20.06
2017-04-29T01:54:44.569Z,20.16
2017-04-29T01:55:28.082Z,20.14
2017-04-29T01:56:11.421Z,20.13
2017-04-29T01:56:55.599Z,20.13
2017-04-29T01:57:37.783Z,20.1
2017-04-29T01:58:20.099Z,20.05
2017-04-29T01:59:04.522Z,20.13
2017-04-29T01:59:47.518Z,20.14
2017-04-29T02:00:31.532Z,20.14
2017-04-29T02:01:15.550Z,20.13
2017-04-29T02:01:59.051Z,20.06
2017-04-29T02:02:42.049Z,20.13
2017-04-29T02:03:26.047Z,20.11
2017-04-29T02:04:08.702Z,20.06
2017-04-29T02:05:05.548Z,20.08
2017-04-29T02:05:47.538Z,20.11
2017-04-29T02:06:30.206Z,20.03
2017-04-29T02:07:13.590Z,20.14
2017-04-29T02:07:56.117Z,20.08
2017-04-29T02:08:37.669Z,20.1
2017-04-29T02:09:20.024Z,20.03
2017-04-29T02:10:05.038Z,20.06
2017-04-29T02:10:49.047Z,20.06
2017-04-29T02:11:33.590Z,20.11
2017-04-29T02:12:17.568Z,20.13
2017-04-29T02:13:00.293Z,20.13
2017-04-29T02:13:43.097Z,20.08
2017-04-29T02:14:26.303Z,20.06
2017-04-29T02:15:08.251Z,20.11
2017-04-29T02:15:50.401Z,20.1
2017-04-29T02:16:33.361Z,20.1
2017-04-29T02:17:16.583Z,20.1
2017-04-29T02:17:59.373Z,20.14
2017-04-29T02:18:43.019Z,20.08
2017-04-29T02:19:26.534Z,20.16
2017-04-29T02:20:08.088Z,20.11
2017-04-29T02:20:51.550Z,20.16
2017-04-29T02:21:35.207Z,20.03
2017-04-29T02:22:18.409Z,20.03
2017-04-29T02:23:01.598Z,20.08
2017-04-29T02:23:44.534Z,20.03
2017-04-29T02:24:26.926Z,20.03
2017-04-29T02:26:45.895Z,20.13
2017-04-29T02:27:27.651Z,20.11
2017-04-29T02:28:10.869Z,20.13
2017-04-29T02:28:53.025Z,20.13
2017-04-29T02:29:37.314Z,20.02
2017-04-29T02:30:21.391Z,19.96
2017-04-29T02:31:06.398Z,20.1
2017-04-29T02:31:49.871Z,20.13
2017-04-29T02:32:33.394Z,20.1
2017-04-29T02:33:18.390Z,20.05
2017-04-29T02:34:00.449Z,20.11
2017-04-29T02:34:44.380Z,20.06
2017-04-29T02:35:26.377Z,20.08
2017-04-29T02:36:09.541Z,20.13
2017-04-29T02:36:51.958Z,20.14
2017-04-29T02:37:35.432Z,20.08
2017-04-29T02:38:18.457Z,20.08
2017-04-29T02:39:01.072Z,20.05
2017-04-29T02:39:43.408Z,20.08
2017-04-29T02:40:26.879Z,20.01
2017-04-29T02:41:11.945Z,20.14
2017-04-29T02:41:55.881Z,20.02
2017-04-29T02:42:39.395Z,20.11
2017-04-29T02:43:22.028Z,19.99
2017-04-29T02:44:04.420Z,20.02
2017-04-29T02:44:48.380Z,20.08
2017-04-29T02:45:30.891Z,20.02
2017-04-29T02:47:22.210Z,20.03
2017-04-29T02:48:05.208Z,20.08
2017-04-29T02:48:47.956Z,20.1
2017-04-29T02:49:31.759Z,20.13
2017-04-29T02:50:16.683Z,19.94
2017-04-29T02:50:59.391Z,20.06
2017-04-29T02:51:42.254Z,19.95
2017-04-29T02:52:25.301Z,20.1
2017-04-29T02:53:07.910Z,19.96
2017-04-29T02:53:49.120Z,20.14
2017-04-29T02:54:32.277Z,20.05
2017-04-29T02:55:15.211Z,20.11
2017-04-29T02:55:58.540Z,20.05
2017-04-29T02:56:41.704Z,20.06
2017-04-29T02:57:24.946Z,20.06
2017-04-29T02:58:07.825Z,20.05
2017-04-29T02:58:50.914Z,20.08
2017-04-29T02:59:35.215Z,20.06
2017-04-29T03:00:18.991Z,20.03
2017-04-29T03:01:03.352Z,20.01
2017-04-29T03:01:48.207Z,20.1
2017-04-29T03:02:31.340Z,20.05
2017-04-29T03:03:12.748Z,20.08
2017-04-29T03:03:56.226Z,20.01
2017-04-29T03:04:39.237Z,20.01
2017-04-29T03:05:22.443Z,20.1
2017-04-29T03:06:07.229Z,20.01
2017-04-29T03:06:50.918Z,20.01
2017-04-29T03:07:33.789Z,20.01
2017-04-29T03:08:16.733Z,20.03
2017-04-29T03:09:00.620Z,19.95
2017-04-29T03:09:44.477Z,20.05
2017-04-29T03:10:28.749Z,19.95
2017-04-29T03:11:12.256Z,20.01
2017-04-29T03:11:57.237Z,20.02
2017-04-29T03:12:41.274Z,20.01
2017-04-29T03:13:23.547Z,20.03
2017-04-29T03:14:06.545Z,20.01
2017-04-29T03:14:50.220Z,20.01
2017-04-29T03:15:33.858Z,20.03
2017-04-29T03:16:17.699Z,20.02
2017-04-29T03:17:00.958Z,20.03
2017-04-29T03:17:44.443Z,19.99
2017-04-29T03:18:26.121Z,20.05
2017-04-29T03:19:07.645Z,20.02
2017-04-29T03:19:49.869Z,19.99
2017-04-29T03:20:32.767Z,19.92
2017-04-29T03:21:14.606Z,19.99
2017-04-29T03:21:57.276Z,20.1
2017-04-29T03:22:39.907Z,19.94
2017-04-29T03:23:21.325Z,20.05
2017-04-29T03:24:03.997Z,20.03
2017-04-29T03:24:46.277Z,20.03
2017-04-29T03:25:27.746Z,19.96
2017-04-29T03:26:10.489Z,19.98
2017-04-29T03:26:52.584Z,20.01
2017-04-29T03:27:33.897Z,19.98
2017-04-29T03:28:14.924Z,20.02
2017-04-29T03:28:56.984Z,19.98
2017-04-29T03:29:39.483Z,20.02
2017-04-29T03:30:21.172Z,20.01
2017-04-29T03:31:03.248Z,20.01
2017-04-29T03:31:45.057Z,20.01
2017-04-29T03:32:27.232Z,19.94
2017-04-29T03:33:09.523Z,20.01
2017-04-29T03:33:51.220Z,20.03
2017-04-29T03:34:33.393Z,20.05
2017-04-29T03:35:15.672Z,19.98
2017-04-29T03:35:57.927Z,20.01
2017-04-29T03:36:39.749Z,19.95
2017-04-29T03:37:21.680Z,19.94
2017-04-29T03:38:02.806Z,20.06
2017-04-29T03:38:45.236Z,19.95
2017-04-29T03:39:27.746Z,20.01
2017-04-29T03:40:10.481Z,20.01
2017-04-29T03:40:53.046Z,19.98
2017-04-29T03:41:35.751Z,19.96
2017-04-29T03:42:18.090Z,19.96
2017-04-29T03:43:00.530Z,20.02
2017-04-29T03:43:42.416Z,20.01
2017-04-29T03:44:24.095Z,20.02
2017-04-29T03:45:06.706Z,19.95
2017-04-29T03:45:48.637Z,20.03
2017-04-29T03:46:30.323Z,19.98
2017-04-29T03:47:12.663Z,19.96
2017-04-29T03:47:54.756Z,19.96
2017-04-29T03:48:37.238Z,19.95
2017-04-29T03:49:18.549Z,19.98
2017-04-29T03:50:00.138Z,20.06
2017-04-29T03:50:43.034Z,19.94
2017-04-29T03:51:25.769Z,19.88
2017-04-29T03:52:07.223Z,19.91
2017-04-29T03:52:48.563Z,20.01
2017-04-29T03:53:30.820Z,19.99
2017-04-29T03:54:11.862Z,19.99
2017-04-29T03:54:53.956Z,19.98
2017-04-29T03:55:37.259Z,19.91
2017-04-29T03:56:19.188Z,20.02
2017-04-29T03:57:00.945Z,19.98
2017-04-29T03:57:43.313Z,19.95
2017-04-29T03:58:26.239Z,19.99
2017-04-29T03:59:07.899Z,20.02
2017-04-29T03:59:49.075Z,19.95
2017-04-29T04:00:31.671Z,19.96
2017-04-29T04:01:14.101Z,19.98
2017-04-29T04:01:56.760Z,19.98
2017-04-29T04:02:38.780Z,20.01
2017-04-29T04:03:20.621Z,19.94
2017-04-29T04:04:03.152Z,19.96
2017-04-29T04:04:44.977Z,19.95
2017-04-29T04:05:27.304Z,20.01
2017-04-29T04:06:08.584Z,19.94
2017-04-29T04:08:25.242Z,19.99
2017-04-29T04:09:07.475Z,19.99
2017-04-29T04:09:49.445Z,19.94
2017-04-29T04:10:33.227Z,19.94
2017-04-29T04:11:14.838Z,19.91
2017-04-29T04:11:57.277Z,20.03
2017-04-29T04:12:38.905Z,19.95
2017-04-29T04:13:20.807Z,20.03
2017-04-29T04:14:03.099Z,19.98
2017-04-29T04:14:46.156Z,19.91
2017-04-29T04:15:27.218Z,19.98
2017-04-29T04:16:09.824Z,19.95
2017-04-29T04:16:51.763Z,20.02
2017-04-29T04:17:33.149Z,19.99
2017-04-29T04:18:14.731Z,19.98
2017-04-29T04:18:57.523Z,19.91
2017-04-29T04:19:40.170Z,20.06
2017-04-29T04:20:24.442Z,19.94
2017-04-29T04:21:08.190Z,19.99
2017-04-29T04:21:51.287Z,19.99
2017-04-29T04:22:33.642Z,19.91
2017-04-29T04:23:17.265Z,19.91
2017-04-29T04:23:59.473Z,19.91
2017-04-29T04:24:41.683Z,19.98
2017-04-29T04:25:25.147Z,19.96
2017-04-29T04:26:07.218Z,19.98
2017-04-29T04:26:48.908Z,19.91
2017-04-29T04:27:31.400Z,19.99
2017-04-29T04:28:12.533Z,19.98
2017-04-29T04:28:54.062Z,19.95
2017-04-29T04:29:36.937Z,19.94
2017-04-29T04:30:19.219Z,20.01
2017-04-29T04:31:03.179Z,19.94
2017-04-29T04:31:45.101Z,19.94
2017-04-29T04:32:26.933Z,19.92
2017-04-29T04:33:10.453Z,19.96
2017-04-29T04:33:51.852Z,19.99
2017-04-29T04:34:34.191Z,19.88
2017-04-29T04:35:17.741Z,20.01
2017-04-29T04:36:00.500Z,20.02
2017-04-29T04:36:42.439Z,19.94
2017-04-29T04:37:25.455Z,19.99
2017-04-29T04:38:07.668Z,19.91
2017-04-29T04:38:50.450Z,19.92
2017-04-29T04:39:32.235Z,19.96
2017-04-29T04:40:14.574Z,19.96
2017-04-29T04:40:56.778Z,19.91
2017-04-29T04:41:39.388Z,19.94
2017-04-29T04:42:23.244Z,19.94
2017-04-29T04:43:04.951Z,19.94
2017-04-29T04:43:48.175Z,20.02
2017-04-29T04:44:30.240Z,19.94
2017-04-29T04:45:13.160Z,19.94
2017-04-29T04:45:56.165Z,20.01
2017-04-29T04:46:39.158Z,19.92
2017-04-29T04:47:21.979Z,19.94
2017-04-29T04:48:03.184Z,19.99
2017-04-29T04:48:44.600Z,20.06
2017-04-29T04:49:26.182Z,20.02
2017-04-29T04:50:07.607Z,19.98
2017-04-29T04:50:50.167Z,19.92
2017-04-29T04:51:33.022Z,19.94
2017-04-29T04:52:15.688Z,19.98
2017-04-29T04:52:57.319Z,20.02
2017-04-29T04:53:38.973Z,20.02
2017-04-29T04:54:20.367Z,20.02
2017-04-29T04:55:02.380Z,19.94
2017-04-29T04:55:43.755Z,19.94
2017-04-29T04:56:25.688Z,19.98
2017-04-29T04:57:07.415Z,19.96
2017-04-29T04:57:48.819Z,19.92
2017-04-29T04:58:29.994Z,20.01
2017-04-29T04:59:12.584Z,20.03
2017-04-29T04:59:55.735Z,20.01
2017-04-29T05:00:38.540Z,19.99
2017-04-29T05:01:20.122Z,19.95
2017-04-29T05:02:02.333Z,19.98
2017-04-29T05:02:44.634Z,19.91
2017-04-29T05:03:26.651Z,19.99
2017-04-29T05:04:08.915Z,19.99
2017-04-29T05:04:50.005Z,19.98
2017-04-29T05:05:33.479Z,19.99
2017-04-29T05:06:15.117Z,19.98
2017-04-29T05:06:56.281Z,19.91
2017-04-29T05:09:45.139Z,19.99
2017-04-29T05:10:27.404Z,20.03
2017-04-29T05:11:09.772Z,19.99
2017-04-29T05:11:51.853Z,19.99
2017-04-29T05:12:33.474Z,19.95
2017-04-29T05:13:16.241Z,19.92
2017-04-29T05:13:58.692Z,20.01
2017-04-29T05:14:40.728Z,19.92
2017-04-29T05:15:22.286Z,19.91
2017-04-29T05:16:03.654Z,19.99
2017-04-29T05:16:44.920Z,19.91
2017-04-29T05:17:26.734Z,19.99
2017-04-29T05:18:08.544Z,19.96
2017-04-29T05:18:50.922Z,20.01
2017-04-29T05:19:33.567Z,19.91
2017-04-29T05:20:15.438Z,20.02
2017-04-29T05:20:57.944Z,20.02
2017-04-29T05:21:39.177Z,19.91
2017-04-29T05:22:21.643Z,19.96
2017-04-29T05:23:04.278Z,19.99
2017-04-29T05:23:47.024Z,19.99
2017-04-29T05:24:29.158Z,19.94
2017-04-29T05:25:12.071Z,19.91
2017-04-29T05:25:53.955Z,20.03
2017-04-29T05:26:36.133Z,20.06
2017-04-29T05:27:19.178Z,19.98
2017-04-29T05:28:03.546Z,19.94
2017-04-29T05:29:59.825Z,20.01
2017-04-29T05:30:43.030Z,20.02
2017-04-29T05:31:25.160Z,20.02
2017-04-29T05:32:07.821Z,19.99
2017-04-29T05:32:50.016Z,20.01
2017-04-29T05:33:32.468Z,20.01
2017-04-29T05:34:13.777Z,20.08
2017-04-29T05:34:56.161Z,19.99
2017-04-29T05:35:39.541Z,20.05
2017-04-29T05:36:21.271Z,19.98
2017-04-29T05:37:03.266Z,19.99
2017-04-29T05:37:44.197Z,20.05
2017-04-29T05:38:26.258Z,19.98
2017-04-29T05:39:07.724Z,20.05
2017-04-29T05:39:52.002Z,19.94
2017-04-29T05:40:33.803Z,20.08
2017-04-29T05:41:16.326Z,20.06
2017-04-29T05:41:58.901Z,19.98
2017-04-29T05:42:43.198Z,19.99
2017-04-29T05:43:25.447Z,20.03
2017-04-29T05:44:08.014Z,20.03
2017-04-29T05:44:52.301Z,20.02
2017-04-29T05:45:34.553Z,20.01
2017-04-29T05:46:18.351Z,20.06
2017-04-29T05:47:02.116Z,19.98
2017-04-29T05:47:44.156Z,20.01
2017-04-29T05:48:26.281Z,20.01
2017-04-29T05:49:08.080Z,20.05
2017-04-29T05:49:50.705Z,20.05
2017-04-29T05:50:33.255Z,19.96
2017-04-29T05:51:16.640Z,20.05
2017-04-29T05:51:57.807Z,20.02
2017-04-29T05:52:39.858Z,20.01
2017-04-29T05:53:21.932Z,20.08
2017-04-29T05:54:03.267Z,20.03
2017-04-29T05:54:45.644Z,20.06
2017-04-29T05:55:27.602Z,20.06
2017-04-29T05:56:09.082Z,20.06
2017-04-29T05:56:51.346Z,20.1
2017-04-29T05:57:33.240Z,20.08
2017-04-29T05:58:15.135Z,20.05
2017-04-29T05:59:12.717Z,20.05
2017-04-29T05:59:54.691Z,20.06
2017-04-29T06:00:37.342Z,20.08
2017-04-29T06:01:19.696Z,20.05
2017-04-29T06:02:03.080Z,20.11
2017-04-29T06:02:47.665Z,20.1
2017-04-29T06:03:31.374Z,20.1
2017-04-29T06:04:12.924Z,20.13
2017-04-29T06:04:55.258Z,20.06
2017-04-29T06:05:37.908Z,20.08
2017-04-29T06:06:20.599Z,20.13
2017-04-29T06:07:03.594Z,20.05
2017-04-29T06:07:44.907Z,20.02
2017-04-29T06:08:27.366Z,20.11
2017-04-29T06:10:17.647Z,20.17
2017-04-29T06:10:58.881Z,20.13
2017-04-29T06:11:41.633Z,20.11
2017-04-29T06:12:23.442Z,20.17
2017-04-29T06:13:05.000Z,20.21
2017-04-29T06:13:47.388Z,20.14
2017-04-29T06:14:30.721Z,20.16
2017-04-29T06:15:12.420Z,20.17
2017-04-29T06:15:56.037Z,20.13
2017-04-29T06:16:38.904Z,20.14
2017-04-29T06:17:21.816Z,20.14
2017-04-29T06:18:06.393Z,20.14
2017-04-29T06:18:49.421Z,20.14
2017-04-29T06:19:31.818Z,20.2
2017-04-29T06:20:15.888Z,20.13
2017-04-29T06:20:58.364Z,20.18
2017-04-29T06:21:42.190Z,20.08
2017-04-29T06:22:24.070Z,20.06
2017-04-29T06:23:05.045Z,20.14
2017-04-29T06:23:47.859Z,20.11
2017-04-29T06:24:31.823Z,20.14
2017-04-29T06:25:14.630Z,20.14
2017-04-29T06:25:57.364Z,20.18
2017-04-29T06:26:41.412Z,20.11
2017-04-29T06:27:24.315Z,20.11
2017-04-29T06:28:06.523Z,20.08
2017-04-29T06:28:47.976Z,20.16
2017-04-29T06:30:39.561Z,20.2
2017-04-29T06:31:22.195Z,20.21
2017-04-29T06:32:05.301Z,20.08
2017-04-29T06:32:47.184Z,20.14
2017-04-29T06:33:29.930Z,20.14
2017-04-29T06:34:11.987Z,20.14
2017-04-29T06:34:54.935Z,20.23
2017-04-29T06:35:36.489Z,20.16
2017-04-29T06:36:18.697Z,20.17
2017-04-29T06:37:01.366Z,20.18
2017-04-29T06:37:42.403Z,20.17
2017-04-29T06:38:26.056Z,20.16
2017-04-29T06:39:08.706Z,20.16
2017-04-29T06:39:50.816Z,20.2
2017-04-29T06:40:33.471Z,20.16
2017-04-29T06:41:15.963Z,20.2
2017-04-29T06:42:00.145Z,20.21
2017-04-29T06:42:45.080Z,20.14
2017-04-29T06:43:28.203Z,20.16
2017-04-29T06:44:13.011Z,20.16
2017-04-29T06:44:57.327Z,20.17
2017-04-29T06:45:41.525Z,20.17
2017-04-29T06:46:25.531Z,20.16
2017-04-29T06:47:10.017Z,20.17
2017-04-29T06:47:53.814Z,20.16
2017-04-29T06:48:35.650Z,20.16
2017-04-29T06:49:19.564Z,20.13
2017-04-29T06:50:05.011Z,20.18
2017-04-29T06:50:46.767Z,20.16
2017-04-29T06:51:29.417Z,20.11
2017-04-29T06:52:12.082Z,20.2
2017-04-29T06:52:54.789Z,20.17
2017-04-29T06:53:37.364Z,20.16
2017-04-29T06:54:19.800Z,20.26
2017-04-29T06:55:01.471Z,20.14
2017-04-29T06:55:45.054Z,20.17
2017-04-29T06:56:28.689Z,20.16
2017-04-29T06:57:12.028Z,20.18
2017-04-29T06:57:56.032Z,20.11
2017-04-29T06:58:39.027Z,20.18
2017-04-29T06:59:21.722Z,20.13
2017-04-29T07:00:05.535Z,20.18
2017-04-29T07:00:47.425Z,20.21
2017-04-29T07:01:30.168Z,20.23
2017-04-29T07:02:14.182Z,20.16
2017-04-29T07:02:56.311Z,20.21
2017-04-29T07:03:38.772Z,20.11
2017-04-29T07:04:20.164Z,20.13
2017-04-29T07:05:04.044Z,20.18
2017-04-29T07:05:47.285Z,20.14
2017-04-29T07:06:32.033Z,20.14
2017-04-29T07:07:16.036Z,20.14
2017-04-29T07:08:00.133Z,20.13
2017-04-29T07:08:44.637Z,20.17
2017-04-29T07:09:29.020Z,20.17
2017-04-29T07:11:20.785Z,20.14
2017-04-29T07:12:04.712Z,20.16
2017-04-29T07:12:48.344Z,20.11
2017-04-29T07:13:32.143Z,20.16
2017-04-29T07:14:14.875Z,20.16
2017-04-29T07:14:58.532Z,20.2
2017-04-29T07:15:42.663Z,20.14
2017-04-29T07:16:25.727Z,20.16
2017-04-29T07:17:09.723Z,20.16
2017-04-29T07:17:52.668Z,20.13
2017-04-29T07:18:36.266Z,20.17
2017-04-29T07:19:19.184Z,20.1
2017-04-29T07:20:02.018Z,20.1
2017-04-29T07:20:46.539Z,20.13
2017-04-29T07:21:31.225Z,20.16
2017-04-29T07:22:13.331Z,20.2
2017-04-29T07:22:56.070Z,20.14
2017-04-29T07:23:39.035Z,20.13
2017-04-29T07:24:22.188Z,20.16
2017-04-29T07:25:06.302Z,20.05
2017-04-29T07:25:48.068Z,20.03
2017-04-29T07:26:32.061Z,20.14
2017-04-29T07:27:14.244Z,20.14
2017-04-29T07:27:56.211Z,20.13
2017-04-29T07:28:38.435Z,20.16
2017-04-29T07:29:20.727Z,20.13
2017-04-29T07:30:04.203Z,20.14
2017-04-29T07:30:48.111Z,20.13
2017-04-29T07:31:31.762Z,20.03
2017-04-29T07:32:14.807Z,20.06
2017-04-29T07:32:58.213Z,20.11
2017-04-29T07:33:40.703Z,20.18
2017-04-29T07:34:22.867Z,20.11
2017-04-29T07:35:05.698Z,20.18
2017-04-29T07:35:49.211Z,20.11
2017-04-29T07:36:33.278Z,20.13
2017-04-29T07:37:17.243Z,20.14
2017-04-29T07:38:01.912Z,20.11
2017-04-29T07:38:45.234Z,20.14
2017-04-29T07:39:28.481Z,20.11
2017-04-29T07:40:10.161Z,20.1
2017-04-29T07:41:00.415Z,20.14
2017-04-29T07:41:42.989Z,20.21
2017-04-29T07:42:23.981Z,20.13
2017-04-29T07:43:05.620Z,20.1
2017-04-29T07:43:47.284Z,20.14
2017-04-29T07:44:28.127Z,20.16
2017-04-29T07:45:09.410Z,20.08
2017-04-29T07:45:50.707Z,20.13
2017-04-29T07:46:34.029Z,20.13
2017-04-29T07:47:17.225Z,20.13
2017-04-29T07:48:00.217Z,20.11
2017-04-29T07:48:42.756Z,20.2
2017-04-29T07:49:24.528Z,20.11
2017-04-29T07:50:06.571Z,20.16
2017-04-29T07:50:47.662Z,20.28
2017-04-29T07:51:28.761Z,20.13
2017-04-29T07:52:09.746Z,20.24
2017-04-29T07:52:51.064Z,20.18
2017-04-29T07:53:33.462Z,20.2
2017-04-29T07:54:16.289Z,20.1
2017-04-29T07:54:57.683Z,20.14
2017-04-29T07:55:39.370Z,20.18
2017-04-29T07:56:20.782Z,20.13
2017-04-29T07:57:03.103Z,20.23
2017-04-29T07:57:44.103Z,20.28
2017-04-29T07:58:25.334Z,20.24
2017-04-29T07:59:07.269Z,20.21
2017-04-29T07:59:48.382Z,20.28
2017-04-29T08:00:29.682Z,20.28
2017-04-29T08:01:11.557Z,20.28
2017-04-29T08:01:53.189Z,20.17
2017-04-29T08:02:34.264Z,20.35
2017-04-29T08:03:15.452Z,20.23
2017-04-29T08:03:56.983Z,20.29
2017-04-29T08:04:38.346Z,20.29
2017-04-29T08:05:20.223Z,20.29
2017-04-29T08:06:03.330Z,20.26
2017-04-29T08:06:47.277Z,20.28
2017-04-29T08:07:28.711Z,20.29
2017-04-29T08:08:11.718Z,20.26
2017-04-29T08:08:53.256Z,20.31
2017-04-29T08:09:34.534Z,20.32
2017-04-29T08:11:51.915Z,20.28
2017-04-29T08:12:34.021Z,20.32
2017-04-29T08:13:14.899Z,20.31
2017-04-29T08:13:57.586Z,20.29
2017-04-29T08:14:39.639Z,20.26
2017-04-29T08:15:21.821Z,20.31
2017-04-29T08:16:04.659Z,20.29
2017-04-29T08:16:46.785Z,20.32
2017-04-29T08:17:28.862Z,20.31
2017-04-29T08:18:09.973Z,20.32
2017-04-29T08:18:52.495Z,20.31
2017-04-29T08:19:33.596Z,20.29
2017-04-29T08:20:14.746Z,20.26
2017-04-29T08:20:57.144Z,20.31
2017-04-29T08:21:39.582Z,20.31
2017-04-29T08:22:22.002Z,20.31
2017-04-29T08:23:04.446Z,20.31
2017-04-29T08:23:46.672Z,20.35
2017-04-29T08:24:30.353Z,20.33
2017-04-29T08:25:13.613Z,20.29
2017-04-29T08:25:56.875Z,20.32
2017-04-29T08:26:38.221Z,20.36
2017-04-29T08:27:21.370Z,20.29
2017-04-29T08:28:04.169Z,20.38
2017-04-29T08:28:47.573Z,20.36
2017-04-29T08:29:28.774Z,20.32
2017-04-29T08:30:10.431Z,20.36
2017-04-29T08:32:27.425Z,20.28
2017-04-29T08:33:08.553Z,20.43
2017-04-29T08:33:50.068Z,20.42
2017-04-29T08:34:33.017Z,20.39
2017-04-29T08:35:14.061Z,20.38
2017-04-29T08:35:56.594Z,20.51
2017-04-29T08:36:38.244Z,20.39
2017-04-29T08:37:19.237Z,20.51
2017-04-29T08:38:00.399Z,20.43
2017-04-29T08:38:42.904Z,20.43
2017-04-29T08:39:25.449Z,20.39
2017-04-29T08:40:06.861Z,20.36
2017-04-29T08:40:48.311Z,20.39
2017-04-29T08:41:30.436Z,20.5
2017-04-29T08:42:12.776Z,20.5
2017-04-29T08:42:54.339Z,20.48
2017-04-29T08:43:36.728Z,20.48
2017-04-29T08:44:18.755Z,20.38
2017-04-29T08:45:00.490Z,20.38
2017-04-29T08:45:41.488Z,20.41
2017-04-29T08:46:22.403Z,20.48
2017-04-29T08:47:03.389Z,20.5
2017-04-29T08:47:44.336Z,20.43
2017-04-29T08:48:25.578Z,20.5
2017-04-29T08:49:06.434Z,20.36
2017-04-29T08:49:50.140Z,20.43
2017-04-29T08:50:35.789Z,20.43
2017-04-29T08:51:19.819Z,20.43
2017-04-29T08:52:04.523Z,20.47
2017-04-29T08:52:46.533Z,20.43
2017-04-29T08:53:32.788Z,20.5
2017-04-29T08:54:15.452Z,20.36
2017-04-29T08:54:56.788Z,20.48
2017-04-29T08:55:38.301Z,20.42
2017-04-29T08:56:20.112Z,20.42
2017-04-29T08:57:01.373Z,20.43
2017-04-29T08:57:42.917Z,20.39
2017-04-29T08:58:24.207Z,20.48
2017-04-29T08:59:05.791Z,20.42
2017-04-29T08:59:47.086Z,20.48
2017-04-29T09:00:34.049Z,20.5
2017-04-29T09:01:21.351Z,20.42
2017-04-29T09:02:08.323Z,20.52
2017-04-29T09:02:54.607Z,20.52
2017-04-29T09:03:36.225Z,20.61
2017-04-29T09:04:26.017Z,20.55
2017-04-29T09:05:12.851Z,20.39
2017-04-29T09:06:04.925Z,20.52
2017-04-29T09:06:57.085Z,20.48
2017-04-29T09:07:48.434Z,20.5
2017-04-29T09:09:57.639Z,20.55
2017-04-29T09:10:39.676Z,20.54
2017-04-29T09:11:20.606Z,20.55
2017-04-29T09:12:01.702Z,20.47
2017-04-29T09:12:42.814Z,20.52
2017-04-29T09:13:23.640Z,20.54
2017-04-29T09:14:04.507Z,20.43
2017-04-29T09:14:47.281Z,20.43
2017-04-29T09:15:30.450Z,20.42
2017-04-29T09:16:13.731Z,20.64
2017-04-29T09:16:56.304Z,20.51
2017-04-29T09:17:39.700Z,20.47
2017-04-29T09:18:23.307Z,20.54
2017-04-29T09:19:05.555Z,20.58
2017-04-29T09:19:49.094Z,20.59
2017-04-29T09:20:33.075Z,20.58
2017-04-29T09:21:16.528Z,20.54
2017-04-29T09:21:59.045Z,20.52
2017-04-29T09:22:41.743Z,20.47
2017-04-29T09:23:23.948Z,20.51
2017-04-29T09:24:06.276Z,20.54
2017-04-29T09:24:48.077Z,20.51
2017-04-29T09:25:31.530Z,20.43
2017-04-29T09:26:15.499Z,20.52
2017-04-29T09:26:59.467Z,20.5
2017-04-29T09:27:42.036Z,20.47
2017-04-29T09:28:25.532Z,20.47
2017-04-29T09:29:08.362Z,20.55
2017-04-29T09:29:52.065Z,20.51
2017-04-29T09:30:35.001Z,20.51
2017-04-29T09:31:17.566Z,20.51
2017-04-29T09:32:00.722Z,20.55
2017-04-29T09:32:44.035Z,20.51
2017-04-29T09:33:27.564Z,20.51
2017-04-29T09:34:09.585Z,20.52
2017-04-29T09:34:54.518Z,20.5
2017-04-29T09:35:39.531Z,20.47
2017-04-29T09:36:23.518Z,20.51